sensor_id;sensor_type;location;lat;lon;timestamp;temperature;humidity
1137;DHT22;557;48.466;7.950;2023-01-19T00:02:05;-1.30;99.90
1137;DHT22;557;48.466;7.950;2023-01-19T00:04:52;-1.30;99.90
1137;DHT22;557;48.466;7.950;2023-01-19T00:07:40;-1.30;99.90
1137;DHT22;557;48.466;7.950;2023-01-19T00:10:27;-1.30;99.90
1137;DHT22;557;48.466;7.950;2023-01-19T00:13:16;-1.30;99.90
1137;DHT22;557;48.466;7.950;2023-01-19T00:16:04;-1.30;99.90
1137;DHT22;557;48.466;7.950;2023-01-19T00:18:52;-1.30;99.90
1137;DHT22;557;48.466;7.950;2023-01-19T00:21:40;-1.40;99.90
1137;DHT22;557;48.466;7.950;2023-01-19T00:24:27;-1.30;99.90
1137;DHT22;557;48.466;7.950;2023-01-19T00:27:15;-1.30;99.90
1137;DHT22;557;48.466;7.950;2023-01-19T00:30:04;-1.30;99.90
1137;DHT22;557;48.466;7.950;2023-01-19T00:32:52;-1.40;99.90
1137;DHT22;557;48.466;7.950;2023-01-19T00:35:40;-1.40;99.90
1137;DHT22;557;48.466;7.950;2023-01-19T00:38:28;-1.40;99.90
1137;DHT22;557;48.466;7.950;2023-01-19T00:41:15;-1.40;99.90
1137;DHT22;557;48.466;7.950;2023-01-19T00:44:03;-1.30;99.90
1137;DHT22;557;48.466;7.950;2023-01-19T00:46:51;-1.40;99.90
1137;DHT22;557;48.466;7.950;2023-01-19T00:49:38;-1.30;99.90
1137;DHT22;557;48.466;7.950;2023-01-19T00:52:26;-1.40;99.90
1137;DHT22;557;48.466;7.950;2023-01-19T00:55:14;-1.40;99.90
1137;DHT22;557;48.466;7.950;2023-01-19T00:58:01;-1.50;99.90
1137;DHT22;557;48.466;7.950;2023-01-19T01:00:49;-1.40;99.90
1137;DHT22;557;48.466;7.950;2023-01-19T01:03:40;-1.50;99.90
1137;DHT22;557;48.466;7.950;2023-01-19T01:06:27;-1.50;99.90
1137;DHT22;557;48.466;7.950;2023-01-19T01:09:14;-1.50;99.90
1137;DHT22;557;48.466;7.950;2023-01-19T01:12:02;-1.50;99.90
1137;DHT22;557;48.466;7.950;2023-01-19T01:14:50;-1.50;99.90
1137;DHT22;557;48.466;7.950;2023-01-19T01:17:37;-1.40;99.90
1137;DHT22;557;48.466;7.950;2023-01-19T01:20:33;-1.40;99.90
1137;DHT22;557;48.466;7.950;2023-01-19T01:23:22;-1.40;99.90
1137;DHT22;557;48.466;7.950;2023-01-19T01:26:09;-1.30;99.90
1137;DHT22;557;48.466;7.950;2023-01-19T01:28:57;-1.30;99.90
1137;DHT22;557;48.466;7.950;2023-01-19T01:31:44;-1.30;99.90
1137;DHT22;557;48.466;7.950;2023-01-19T01:34:32;-1.30;99.90
1137;DHT22;557;48.466;7.950;2023-01-19T01:37:21;-1.30;99.90
1137;DHT22;557;48.466;7.950;2023-01-19T01:40:10;-1.40;99.90
1137;DHT22;557;48.466;7.950;2023-01-19T01:42:58;-1.30;99.90
1137;DHT22;557;48.466;7.950;2023-01-19T01:45:46;-1.30;99.90
1137;DHT22;557;48.466;7.950;2023-01-19T01:48:33;-1.30;99.90
1137;DHT22;557;48.466;7.950;2023-01-19T01:51:26;-1.30;99.90
1137;DHT22;557;48.466;7.950;2023-01-19T01:54:20;-1.30;99.90
1137;DHT22;557;48.466;7.950;2023-01-19T01:57:09;-1.30;99.90
1137;DHT22;557;48.466;7.950;2023-01-19T01:59:57;-1.30;99.90
1137;DHT22;557;48.466;7.950;2023-01-19T02:02:45;-1.40;99.90
1137;DHT22;557;48.466;7.950;2023-01-19T02:05:38;-1.40;99.90
1137;DHT22;557;48.466;7.950;2023-01-19T02:08:29;-1.40;99.90
1137;DHT22;557;48.466;7.950;2023-01-19T02:11:36;-1.40;99.90
1137;DHT22;557;48.466;7.950;2023-01-19T02:14:40;-1.40;99.90
1137;DHT22;557;48.466;7.950;2023-01-19T02:17:28;-1.40;99.90
1137;DHT22;557;48.466;7.950;2023-01-19T02:20:16;-1.30;99.90
1137;DHT22;557;48.466;7.950;2023-01-19T02:23:07;-1.30;99.90
1137;DHT22;557;48.466;7.950;2023-01-19T02:26:02;-1.20;99.90
1137;DHT22;557;48.466;7.950;2023-01-19T02:28:53;-1.20;99.90
1137;DHT22;557;48.466;7.950;2023-01-19T02:31:42;-1.20;99.90
1137;DHT22;557;48.466;7.950;2023-01-19T02:34:30;-1.10;99.90
1137;DHT22;557;48.466;7.950;2023-01-19T02:37:18;-1.10;99.90
1137;DHT22;557;48.466;7.950;2023-01-19T02:40:10;-1.10;99.90
1137;DHT22;557;48.466;7.950;2023-01-19T02:42:59;-1.00;99.90
1137;DHT22;557;48.466;7.950;2023-01-19T02:45:47;-1.00;99.90
1137;DHT22;557;48.466;7.950;2023-01-19T02:48:35;-1.00;99.90
1137;DHT22;557;48.466;7.950;2023-01-19T02:51:23;-0.90;99.90
1137;DHT22;557;48.466;7.950;2023-01-19T02:54:27;-0.90;99.90
1137;DHT22;557;48.466;7.950;2023-01-19T02:57:37;-0.80;99.90
1137;DHT22;557;48.466;7.950;2023-01-19T03:00:37;-0.70;99.90
1137;DHT22;557;48.466;7.950;2023-01-19T03:03:29;-0.70;99.90
1137;DHT22;557;48.466;7.950;2023-01-19T03:06:27;-0.70;99.90
1137;DHT22;557;48.466;7.950;2023-01-19T03:09:27;-0.80;99.90
1137;DHT22;557;48.466;7.950;2023-01-19T03:12:24;-0.80;99.90
1137;DHT22;557;48.466;7.950;2023-01-19T03:15:17;-0.90;99.90
1137;DHT22;557;48.466;7.950;2023-01-19T03:18:09;-0.90;99.90
1137;DHT22;557;48.466;7.950;2023-01-19T03:21:00;-0.90;99.90
1137;DHT22;557;48.466;7.950;2023-01-19T03:23:50;-1.00;99.90
1137;DHT22;557;48.466;7.950;2023-01-19T03:26:41;-1.10;99.90
1137;DHT22;557;48.466;7.950;2023-01-19T03:29:31;-1.10;99.90
1137;DHT22;557;48.466;7.950;2023-01-19T03:32:24;-1.10;99.90
1137;DHT22;557;48.466;7.950;2023-01-19T03:35:17;-1.10;99.90
1137;DHT22;557;48.466;7.950;2023-01-19T03:38:08;-1.10;99.90
1137;DHT22;557;48.466;7.950;2023-01-19T03:41:00;-1.10;99.90
1137;DHT22;557;48.466;7.950;2023-01-19T03:43:48;-1.10;99.90
1137;DHT22;557;48.466;7.950;2023-01-19T03:46:37;-1.10;99.90
1137;DHT22;557;48.466;7.950;2023-01-19T03:49:25;-1.10;99.90
1137;DHT22;557;48.466;7.950;2023-01-19T03:52:14;-1.10;99.90
1137;DHT22;557;48.466;7.950;2023-01-19T03:55:02;-1.10;99.90
1137;DHT22;557;48.466;7.950;2023-01-19T03:57:50;-1.10;99.90
1137;DHT22;557;48.466;7.950;2023-01-19T04:00:38;-1.10;99.90
1137;DHT22;557;48.466;7.950;2023-01-19T04:03:26;-1.20;99.90
1137;DHT22;557;48.466;7.950;2023-01-19T04:06:13;-1.10;99.90
1137;DHT22;557;48.466;7.950;2023-01-19T04:09:02;-1.20;99.90
1137;DHT22;557;48.466;7.950;2023-01-19T04:11:50;-1.30;99.90
1137;DHT22;557;48.466;7.950;2023-01-19T04:14:37;-1.30;99.90
1137;DHT22;557;48.466;7.950;2023-01-19T04:17:24;-1.40;99.90
1137;DHT22;557;48.466;7.950;2023-01-19T04:20:12;-1.40;99.90
1137;DHT22;557;48.466;7.950;2023-01-19T04:23:00;-1.40;99.90
1137;DHT22;557;48.466;7.950;2023-01-19T04:25:49;-1.40;99.90
1137;DHT22;557;48.466;7.950;2023-01-19T04:28:36;-1.40;99.90
1137;DHT22;557;48.466;7.950;2023-01-19T04:31:23;-1.40;99.90
1137;DHT22;557;48.466;7.950;2023-01-19T04:34:10;-1.30;99.90
1137;DHT22;557;48.466;7.950;2023-01-19T04:36:58;-1.30;99.90
1137;DHT22;557;48.466;7.950;2023-01-19T04:39:45;-1.30;99.90
1137;DHT22;557;48.466;7.950;2023-01-19T04:42:34;-1.30;99.90
1137;DHT22;557;48.466;7.950;2023-01-19T04:45:21;-1.40;99.90
1137;DHT22;557;48.466;7.950;2023-01-19T04:48:08;-1.50;99.90
1137;DHT22;557;48.466;7.950;2023-01-19T04:50:55;-1.50;99.90
1137;DHT22;557;48.466;7.950;2023-01-19T04:53:43;-1.50;99.90
1137;DHT22;557;48.466;7.950;2023-01-19T04:56:30;-1.50;99.90
1137;DHT22;557;48.466;7.950;2023-01-19T04:59:19;-1.50;99.90
1137;DHT22;557;48.466;7.950;2023-01-19T05:02:06;-1.40;99.90
1137;DHT22;557;48.466;7.950;2023-01-19T05:04:54;-1.40;99.90
1137;DHT22;557;48.466;7.950;2023-01-19T05:07:42;-1.40;99.90
1137;DHT22;557;48.466;7.950;2023-01-19T05:10:29;-1.40;99.90
1137;DHT22;557;48.466;7.950;2023-01-19T05:13:16;-1.40;99.90
1137;DHT22;557;48.466;7.950;2023-01-19T05:16:06;-1.40;99.90
1137;DHT22;557;48.466;7.950;2023-01-19T05:18:53;-1.40;99.90
1137;DHT22;557;48.466;7.950;2023-01-19T05:21:41;-1.50;99.90
1137;DHT22;557;48.466;7.950;2023-01-19T05:24:29;-1.50;99.90
1137;DHT22;557;48.466;7.950;2023-01-19T05:27:16;-1.50;99.90
1137;DHT22;557;48.466;7.950;2023-01-19T05:30:04;-1.50;99.90
1137;DHT22;557;48.466;7.950;2023-01-19T05:32:53;-1.60;99.90
1137;DHT22;557;48.466;7.950;2023-01-19T05:35:40;-1.60;99.90
1137;DHT22;557;48.466;7.950;2023-01-19T05:38:28;-1.60;99.90
1137;DHT22;557;48.466;7.950;2023-01-19T05:41:15;-1.60;99.90
1137;DHT22;557;48.466;7.950;2023-01-19T05:44:02;-1.60;99.90
1137;DHT22;557;48.466;7.950;2023-01-19T05:46:50;-1.60;99.90
1137;DHT22;557;48.466;7.950;2023-01-19T05:49:38;-1.60;99.90
1137;DHT22;557;48.466;7.950;2023-01-19T05:52:26;-1.60;99.90
1137;DHT22;557;48.466;7.950;2023-01-19T05:55:13;-1.60;99.90
1137;DHT22;557;48.466;7.950;2023-01-19T05:58:01;-1.60;99.90
1137;DHT22;557;48.466;7.950;2023-01-19T06:00:48;-1.50;99.90
1137;DHT22;557;48.466;7.950;2023-01-19T06:03:36;-1.50;99.90
1137;DHT22;557;48.466;7.950;2023-01-19T06:06:25;-1.40;99.90
1137;DHT22;557;48.466;7.950;2023-01-19T06:09:13;-1.40;99.90
1137;DHT22;557;48.466;7.950;2023-01-19T06:12:02;-1.30;99.90
1137;DHT22;557;48.466;7.950;2023-01-19T06:14:50;-1.30;99.90
1137;DHT22;557;48.466;7.950;2023-01-19T06:17:38;-1.20;99.90
1137;DHT22;557;48.466;7.950;2023-01-19T06:20:25;-1.20;99.90
1137;DHT22;557;48.466;7.950;2023-01-19T06:23:13;-1.10;99.90
1137;DHT22;557;48.466;7.950;2023-01-19T06:26:02;-1.10;99.90
1137;DHT22;557;48.466;7.950;2023-01-19T06:28:49;-1.10;99.90
1137;DHT22;557;48.466;7.950;2023-01-19T06:31:37;-1.10;99.90
1137;DHT22;557;48.466;7.950;2023-01-19T06:34:24;-1.00;99.90
1137;DHT22;557;48.466;7.950;2023-01-19T06:37:13;-1.00;99.90
1137;DHT22;557;48.466;7.950;2023-01-19T06:40:03;-1.00;99.90
1137;DHT22;557;48.466;7.950;2023-01-19T06:42:51;-1.00;99.90
1137;DHT22;557;48.466;7.950;2023-01-19T06:45:38;-1.00;99.90
1137;DHT22;557;48.466;7.950;2023-01-19T06:48:26;-1.00;99.90
1137;DHT22;557;48.466;7.950;2023-01-19T06:51:13;-1.00;99.90
1137;DHT22;557;48.466;7.950;2023-01-19T06:54:00;-1.10;99.90
1137;DHT22;557;48.466;7.950;2023-01-19T06:56:49;-1.10;99.90
1137;DHT22;557;48.466;7.950;2023-01-19T06:59:37;-1.00;99.90
1137;DHT22;557;48.466;7.950;2023-01-19T07:02:24;-1.00;99.90
1137;DHT22;557;48.466;7.950;2023-01-19T07:05:11;-1.00;99.90
1137;DHT22;557;48.466;7.950;2023-01-19T07:07:59;-1.00;99.90
1137;DHT22;557;48.466;7.950;2023-01-19T07:10:47;-1.00;99.90
1137;DHT22;557;48.466;7.950;2023-01-19T07:13:36;-0.90;99.90
1137;DHT22;557;48.466;7.950;2023-01-19T07:16:24;-0.90;99.90
1137;DHT22;557;48.466;7.950;2023-01-19T07:19:12;-0.90;99.90
1137;DHT22;557;48.466;7.950;2023-01-19T07:22:00;-0.90;99.90
1137;DHT22;557;48.466;7.950;2023-01-19T07:24:48;-0.90;99.90
1137;DHT22;557;48.466;7.950;2023-01-19T07:27:35;-0.90;99.90
1137;DHT22;557;48.466;7.950;2023-01-19T07:30:24;-0.90;99.90
1137;DHT22;557;48.466;7.950;2023-01-19T07:33:11;-0.80;99.90
1137;DHT22;557;48.466;7.950;2023-01-19T07:35:58;-0.80;99.90
1137;DHT22;557;48.466;7.950;2023-01-19T07:38:46;-0.80;99.90
1137;DHT22;557;48.466;7.950;2023-01-19T07:41:33;-0.80;99.90
1137;DHT22;557;48.466;7.950;2023-01-19T07:44:20;-0.70;99.90
1137;DHT22;557;48.466;7.950;2023-01-19T07:47:09;-0.70;99.90
1137;DHT22;557;48.466;7.950;2023-01-19T07:49:57;-0.60;99.90
1137;DHT22;557;48.466;7.950;2023-01-19T07:52:44;-0.50;99.90
1137;DHT22;557;48.466;7.950;2023-01-19T07:55:32;-0.50;99.90
1137;DHT22;557;48.466;7.950;2023-01-19T07:58:19;-0.50;99.90
1137;DHT22;557;48.466;7.950;2023-01-19T08:01:07;-0.50;99.90
1137;DHT22;557;48.466;7.950;2023-01-19T08:03:56;-0.50;99.90
1137;DHT22;557;48.466;7.950;2023-01-19T08:06:44;-0.50;99.90
1137;DHT22;557;48.466;7.950;2023-01-19T08:09:32;-0.30;99.90
1137;DHT22;557;48.466;7.950;2023-01-19T08:12:19;-0.40;99.90
1137;DHT22;557;48.466;7.950;2023-01-19T08:15:08;-0.40;99.90
1137;DHT22;557;48.466;7.950;2023-01-19T08:17:56;-0.40;99.90
1137;DHT22;557;48.466;7.950;2023-01-19T08:20:45;-0.40;99.90
1137;DHT22;557;48.466;7.950;2023-01-19T08:23:32;-0.30;99.90
1137;DHT22;557;48.466;7.950;2023-01-19T08:26:21;-0.30;99.90
1137;DHT22;557;48.466;7.950;2023-01-19T08:29:12;-0.30;99.90
1137;DHT22;557;48.466;7.950;2023-01-19T08:31:59;-0.20;99.90
1137;DHT22;557;48.466;7.950;2023-01-19T08:34:47;-0.20;99.10
1137;DHT22;557;48.466;7.950;2023-01-19T08:37:36;-0.20;99.90
1137;DHT22;557;48.466;7.950;2023-01-19T08:40:23;-0.10;99.90
1137;DHT22;557;48.466;7.950;2023-01-19T08:43:13;0.00;99.90
1137;DHT22;557;48.466;7.950;2023-01-19T08:46:02;0.00;93.10
1137;DHT22;557;48.466;7.950;2023-01-19T08:48:50;0.00;90.00
1137;DHT22;557;48.466;7.950;2023-01-19T08:51:37;0.10;82.40
1137;DHT22;557;48.466;7.950;2023-01-19T08:54:26;0.10;95.80
1137;DHT22;557;48.466;7.950;2023-01-19T08:57:13;0.20;95.30
1137;DHT22;557;48.466;7.950;2023-01-19T09:00:02;0.10;89.60
1137;DHT22;557;48.466;7.950;2023-01-19T09:02:49;0.20;90.00
1137;DHT22;557;48.466;7.950;2023-01-19T09:05:38;0.20;64.20
1137;DHT22;557;48.466;7.950;2023-01-19T09:08:26;0.30;65.20
1137;DHT22;557;48.466;7.950;2023-01-19T09:11:16;0.30;75.50
1137;DHT22;557;48.466;7.950;2023-01-19T09:14:03;0.30;92.20
1137;DHT22;557;48.466;7.950;2023-01-19T09:16:51;0.40;72.40
1137;DHT22;557;48.466;7.950;2023-01-19T09:19:38;0.40;77.10
1137;DHT22;557;48.466;7.950;2023-01-19T09:22:26;0.40;70.40
1137;DHT22;557;48.466;7.950;2023-01-19T09:25:13;0.40;67.00
1137;DHT22;557;48.466;7.950;2023-01-19T09:28:02;0.50;44.30
1137;DHT22;557;48.466;7.950;2023-01-19T09:30:50;0.50;60.60
1137;DHT22;557;48.466;7.950;2023-01-19T09:33:37;0.60;44.30
1137;DHT22;557;48.466;7.950;2023-01-19T09:36:25;0.60;37.20
1137;DHT22;557;48.466;7.950;2023-01-19T09:39:12;0.60;57.00
1137;DHT22;557;48.466;7.950;2023-01-19T09:42:04;0.60;50.20
1137;DHT22;557;48.466;7.950;2023-01-19T09:44:53;0.60;53.50
1137;DHT22;557;48.466;7.950;2023-01-19T09:47:41;0.60;64.60
1137;DHT22;557;48.466;7.950;2023-01-19T09:50:32;0.60;92.20
1137;DHT22;557;48.466;7.950;2023-01-19T09:53:32;0.70;89.70
1137;DHT22;557;48.466;7.950;2023-01-19T09:56:20;0.60;82.70
1137;DHT22;557;48.466;7.950;2023-01-19T09:59:19;0.60;65.40
1137;DHT22;557;48.466;7.950;2023-01-19T10:02:24;0.80;80.40
1137;DHT22;557;48.466;7.950;2023-01-19T10:05:22;0.90;70.90
1137;DHT22;557;48.466;7.950;2023-01-19T10:08:17;1.00;3.70
1137;DHT22;557;48.466;7.950;2023-01-19T10:11:14;1.10;1.00
1137;DHT22;557;48.466;7.950;2023-01-19T10:14:10;1.20;1.00
1137;DHT22;557;48.466;7.950;2023-01-19T10:17:04;1.20;5.00
1137;DHT22;557;48.466;7.950;2023-01-19T10:19:57;1.30;1.00
1137;DHT22;557;48.466;7.950;2023-01-19T10:22:48;1.40;1.00
1137;DHT22;557;48.466;7.950;2023-01-19T10:25:38;1.50;1.00
1137;DHT22;557;48.466;7.950;2023-01-19T10:28:25;1.50;1.00
1137;DHT22;557;48.466;7.950;2023-01-19T10:31:16;1.60;1.00
1137;DHT22;557;48.466;7.950;2023-01-19T10:34:04;1.70;1.00
1137;DHT22;557;48.466;7.950;2023-01-19T10:36:58;1.80;1.00
1137;DHT22;557;48.466;7.950;2023-01-19T10:39:52;2.20;1.00
1137;DHT22;557;48.466;7.950;2023-01-19T10:42:41;2.30;99.90
1137;DHT22;557;48.466;7.950;2023-01-19T10:45:29;2.40;99.90
1137;DHT22;557;48.466;7.950;2023-01-19T10:48:18;2.70;99.90
1137;DHT22;557;48.466;7.950;2023-01-19T10:51:06;2.80;99.90
1137;DHT22;557;48.466;7.950;2023-01-19T10:54:00;2.80;99.90
1137;DHT22;557;48.466;7.950;2023-01-19T10:56:50;2.60;99.90
1137;DHT22;557;48.466;7.950;2023-01-19T10:59:46;2.40;99.90
1137;DHT22;557;48.466;7.950;2023-01-19T11:02:35;2.50;99.90
1137;DHT22;557;48.466;7.950;2023-01-19T11:05:26;2.40;99.90
1137;DHT22;557;48.466;7.950;2023-01-19T11:08:22;2.40;1.00
1137;DHT22;557;48.466;7.950;2023-01-19T11:11:11;2.70;99.90
1137;DHT22;557;48.466;7.950;2023-01-19T11:14:07;2.80;62.30
1137;DHT22;557;48.466;7.950;2023-01-19T11:16:56;3.30;99.90
1137;DHT22;557;48.466;7.950;2023-01-19T11:19:52;3.40;1.00
1137;DHT22;557;48.466;7.950;2023-01-19T11:22:40;3.50;1.00
1137;DHT22;557;48.466;7.950;2023-01-19T11:25:30;3.80;27.00
1137;DHT22;557;48.466;7.950;2023-01-19T11:28:23;4.00;99.90
1137;DHT22;557;48.466;7.950;2023-01-19T11:31:17;4.50;99.90
1137;DHT22;557;48.466;7.950;2023-01-19T11:34:22;4.50;1.00
1137;DHT22;557;48.466;7.950;2023-01-19T11:37:26;3.90;99.90
1137;DHT22;557;48.466;7.950;2023-01-19T11:40:15;3.60;59.70
1137;DHT22;557;48.466;7.950;2023-01-19T11:43:02;3.40;1.00
1137;DHT22;557;48.466;7.950;2023-01-19T11:45:51;3.30;1.00
1137;DHT22;557;48.466;7.950;2023-01-19T11:48:42;3.10;1.00
1137;DHT22;557;48.466;7.950;2023-01-19T11:51:34;2.80;99.90
1137;DHT22;557;48.466;7.950;2023-01-19T11:54:25;2.70;99.90
1137;DHT22;557;48.466;7.950;2023-01-19T11:57:15;2.70;99.90
1137;DHT22;557;48.466;7.950;2023-01-19T12:00:16;2.70;1.00
1137;DHT22;557;48.466;7.950;2023-01-19T12:03:13;2.70;1.00
1137;DHT22;557;48.466;7.950;2023-01-19T12:06:07;2.60;99.90
1137;DHT22;557;48.466;7.950;2023-01-19T12:08:58;2.60;99.90
1137;DHT22;557;48.466;7.950;2023-01-19T12:11:51;2.60;99.90
1137;DHT22;557;48.466;7.950;2023-01-19T12:14:49;2.60;99.90
1137;DHT22;557;48.466;7.950;2023-01-19T12:17:43;2.80;99.90
1137;DHT22;557;48.466;7.950;2023-01-19T12:20:36;2.70;99.90
1137;DHT22;557;48.466;7.950;2023-01-19T12:23:35;2.70;99.90
1137;DHT22;557;48.466;7.950;2023-01-19T12:26:28;2.70;90.40
1137;DHT22;557;48.466;7.950;2023-01-19T12:29:18;2.70;33.30
1137;DHT22;557;48.466;7.950;2023-01-19T12:32:17;2.70;1.00
1137;DHT22;557;48.466;7.950;2023-01-19T12:35:09;2.70;15.60
1137;DHT22;557;48.466;7.950;2023-01-19T12:38:32;2.60;1.00
1137;DHT22;557;48.466;7.950;2023-01-19T12:41:27;2.60;21.90
1137;DHT22;557;48.466;7.950;2023-01-19T12:44:26;2.70;99.90
1137;DHT22;557;48.466;7.950;2023-01-19T12:47:19;2.70;1.00
1137;DHT22;557;48.466;7.950;2023-01-19T12:50:15;2.70;1.00
1137;DHT22;557;48.466;7.950;2023-01-19T12:53:13;2.80;4.70
1137;DHT22;557;48.466;7.950;2023-01-19T12:56:05;2.90;1.00
1137;DHT22;557;48.466;7.950;2023-01-19T12:58:55;3.00;99.90
1137;DHT22;557;48.466;7.950;2023-01-19T13:01:42;3.10;99.90
1137;DHT22;557;48.466;7.950;2023-01-19T13:04:31;3.10;1.00
1137;DHT22;557;48.466;7.950;2023-01-19T13:07:18;3.10;1.00
1137;DHT22;557;48.466;7.950;2023-01-19T13:13:29;3.00;1.00
1137;DHT22;557;48.466;7.950;2023-01-19T13:19:52;3.10;99.90
1137;DHT22;557;48.466;7.950;2023-01-19T13:26:05;2.90;99.90
1137;DHT22;557;48.466;7.950;2023-01-19T13:28:55;2.90;99.90
1137;DHT22;557;48.466;7.950;2023-01-19T13:31:43;2.90;99.90
1137;DHT22;557;48.466;7.950;2023-01-19T13:34:39;2.80;99.90
1137;DHT22;557;48.466;7.950;2023-01-19T13:37:32;2.70;99.90
1137;DHT22;557;48.466;7.950;2023-01-19T13:40:24;2.70;1.00
1137;DHT22;557;48.466;7.950;2023-01-19T13:43:17;2.70;1.00
1137;DHT22;557;48.466;7.950;2023-01-19T13:46:09;2.70;1.00
1137;DHT22;557;48.466;7.950;2023-01-19T13:49:00;2.70;99.90
1137;DHT22;557;48.466;7.950;2023-01-19T13:52:11;2.70;1.00
1137;DHT22;557;48.466;7.950;2023-01-19T13:55:00;2.70;99.90
1137;DHT22;557;48.466;7.950;2023-01-19T13:57:49;2.70;99.90
1137;DHT22;557;48.466;7.950;2023-01-19T14:00:37;2.70;1.00
1137;DHT22;557;48.466;7.950;2023-01-19T14:03:27;2.70;99.90
1137;DHT22;557;48.466;7.950;2023-01-19T14:06:21;2.70;99.90
1137;DHT22;557;48.466;7.950;2023-01-19T14:09:14;2.70;1.00
1137;DHT22;557;48.466;7.950;2023-01-19T14:12:11;2.70;99.90
1137;DHT22;557;48.466;7.950;2023-01-19T14:14:59;2.70;99.90
1137;DHT22;557;48.466;7.950;2023-01-19T14:18:07;2.80;1.00
1137;DHT22;557;48.466;7.950;2023-01-19T14:20:58;2.70;1.00
1137;DHT22;557;48.466;7.950;2023-01-19T14:23:48;2.60;31.00
1137;DHT22;557;48.466;7.950;2023-01-19T14:26:44;2.60;99.90
1137;DHT22;557;48.466;7.950;2023-01-19T14:29:33;2.60;99.90
1137;DHT22;557;48.466;7.950;2023-01-19T14:32:22;2.60;99.90
1137;DHT22;557;48.466;7.950;2023-01-19T14:35:21;2.60;99.90
1137;DHT22;557;48.466;7.950;2023-01-19T14:38:13;2.60;99.90
1137;DHT22;557;48.466;7.950;2023-01-19T14:41:00;2.60;1.00
1137;DHT22;557;48.466;7.950;2023-01-19T14:43:48;2.50;1.00
1137;DHT22;557;48.466;7.950;2023-01-19T14:46:36;2.50;1.00
1137;DHT22;557;48.466;7.950;2023-01-19T14:49:29;2.50;1.00
1137;DHT22;557;48.466;7.950;2023-01-19T14:52:19;2.60;99.90
1137;DHT22;557;48.466;7.950;2023-01-19T14:55:17;2.60;99.90
1137;DHT22;557;48.466;7.950;2023-01-19T14:58:09;2.60;99.90
1137;DHT22;557;48.466;7.950;2023-01-19T15:00:57;2.50;99.90
1137;DHT22;557;48.466;7.950;2023-01-19T15:03:44;2.50;1.00
1137;DHT22;557;48.466;7.950;2023-01-19T15:06:32;2.50;1.00
1137;DHT22;557;48.466;7.950;2023-01-19T15:09:20;2.40;1.00
1137;DHT22;557;48.466;7.950;2023-01-19T15:12:10;2.50;1.00
1137;DHT22;557;48.466;7.950;2023-01-19T15:15:00;2.40;1.00
1137;DHT22;557;48.466;7.950;2023-01-19T15:17:48;2.40;1.00
1137;DHT22;557;48.466;7.950;2023-01-19T15:20:35;2.40;1.00
1137;DHT22;557;48.466;7.950;2023-01-19T15:23:22;2.40;1.00
1137;DHT22;557;48.466;7.950;2023-01-19T15:26:14;2.40;1.00
1137;DHT22;557;48.466;7.950;2023-01-19T15:29:19;2.40;1.00
1137;DHT22;557;48.466;7.950;2023-01-19T15:32:11;2.30;1.00
1137;DHT22;557;48.466;7.950;2023-01-19T15:34:58;2.30;1.00
1137;DHT22;557;48.466;7.950;2023-01-19T15:37:46;2.40;1.00
1137;DHT22;557;48.466;7.950;2023-01-19T15:40:34;2.40;1.00
1137;DHT22;557;48.466;7.950;2023-01-19T15:43:21;2.30;1.00
1137;DHT22;557;48.466;7.950;2023-01-19T15:46:13;2.40;1.00
1137;DHT22;557;48.466;7.950;2023-01-19T15:49:00;2.30;1.00
1137;DHT22;557;48.466;7.950;2023-01-19T15:51:48;2.30;1.00
1137;DHT22;557;48.466;7.950;2023-01-19T15:54:35;2.30;1.00
1137;DHT22;557;48.466;7.950;2023-01-19T15:57:22;2.30;1.00
1137;DHT22;557;48.466;7.950;2023-01-19T16:00:10;2.20;1.00
1137;DHT22;557;48.466;7.950;2023-01-19T16:03:02;2.20;1.00
1137;DHT22;557;48.466;7.950;2023-01-19T16:05:49;2.20;1.00
1137;DHT22;557;48.466;7.950;2023-01-19T16:08:37;2.20;1.00
1137;DHT22;557;48.466;7.950;2023-01-19T16:11:25;2.20;1.00
1137;DHT22;557;48.466;7.950;2023-01-19T16:14:12;2.20;1.00
1137;DHT22;557;48.466;7.950;2023-01-19T16:17:00;2.20;1.00
1137;DHT22;557;48.466;7.950;2023-01-19T16:19:48;2.20;1.00
1137;DHT22;557;48.466;7.950;2023-01-19T16:22:36;2.10;1.00
1137;DHT22;557;48.466;7.950;2023-01-19T16:25:23;2.10;1.00
1137;DHT22;557;48.466;7.950;2023-01-19T16:28:11;2.10;1.00
1137;DHT22;557;48.466;7.950;2023-01-19T16:30:58;2.10;1.00
1137;DHT22;557;48.466;7.950;2023-01-19T16:33:45;2.10;1.00
1137;DHT22;557;48.466;7.950;2023-01-19T16:36:36;2.20;1.00
1137;DHT22;557;48.466;7.950;2023-01-19T16:39:25;2.10;1.00
1137;DHT22;557;48.466;7.950;2023-01-19T16:42:12;2.10;1.00
1137;DHT22;557;48.466;7.950;2023-01-19T16:45:01;2.10;1.00
1137;DHT22;557;48.466;7.950;2023-01-19T16:47:48;2.10;1.00
1137;DHT22;557;48.466;7.950;2023-01-19T16:50:37;2.10;1.00
1137;DHT22;557;48.466;7.950;2023-01-19T16:53:26;2.10;1.00
1137;DHT22;557;48.466;7.950;2023-01-19T16:56:13;2.10;1.00
1137;DHT22;557;48.466;7.950;2023-01-19T16:59:01;2.10;1.00
1137;DHT22;557;48.466;7.950;2023-01-19T17:01:49;2.00;1.00
1137;DHT22;557;48.466;7.950;2023-01-19T17:04:36;2.00;1.00
1137;DHT22;557;48.466;7.950;2023-01-19T17:07:24;2.00;1.00
1137;DHT22;557;48.466;7.950;2023-01-19T17:10:13;2.00;1.00
1137;DHT22;557;48.466;7.950;2023-01-19T17:13:00;2.00;1.00
1137;DHT22;557;48.466;7.950;2023-01-19T17:15:48;2.00;1.00
1137;DHT22;557;48.466;7.950;2023-01-19T17:18:36;2.10;1.00
1137;DHT22;557;48.466;7.950;2023-01-19T17:21:24;2.00;1.00
1137;DHT22;557;48.466;7.950;2023-01-19T17:24:11;2.00;1.00
1137;DHT22;557;48.466;7.950;2023-01-19T17:27:00;2.00;1.00
1137;DHT22;557;48.466;7.950;2023-01-19T17:29:48;1.90;1.00
1137;DHT22;557;48.466;7.950;2023-01-19T17:32:35;1.90;1.00
1137;DHT22;557;48.466;7.950;2023-01-19T17:35:22;1.90;1.00
1137;DHT22;557;48.466;7.950;2023-01-19T17:38:10;1.90;1.00
1137;DHT22;557;48.466;7.950;2023-01-19T17:40:57;1.90;1.00
1137;DHT22;557;48.466;7.950;2023-01-19T17:43:46;1.90;1.00
1137;DHT22;557;48.466;7.950;2023-01-19T17:46:36;1.90;1.00
1137;DHT22;557;48.466;7.950;2023-01-19T17:49:24;1.90;1.00
1137;DHT22;557;48.466;7.950;2023-01-19T17:52:11;1.90;1.00
1137;DHT22;557;48.466;7.950;2023-01-19T17:54:58;1.90;1.00
1137;DHT22;557;48.466;7.950;2023-01-19T17:57:46;1.90;1.00
1137;DHT22;557;48.466;7.950;2023-01-19T18:00:35;1.80;1.00
1137;DHT22;557;48.466;7.950;2023-01-19T18:03:22;1.80;1.00
1137;DHT22;557;48.466;7.950;2023-01-19T18:06:10;1.80;1.00
1137;DHT22;557;48.466;7.950;2023-01-19T18:08:57;1.80;1.00
1137;DHT22;557;48.466;7.950;2023-01-19T18:11:45;1.80;1.00
1137;DHT22;557;48.466;7.950;2023-01-19T18:14:32;1.80;1.00
1137;DHT22;557;48.466;7.950;2023-01-19T18:17:21;1.80;1.00
1137;DHT22;557;48.466;7.950;2023-01-19T18:20:10;1.80;1.00
1137;DHT22;557;48.466;7.950;2023-01-19T18:22:57;1.80;1.00
1137;DHT22;557;48.466;7.950;2023-01-19T18:25:44;1.80;1.00
1137;DHT22;557;48.466;7.950;2023-01-19T18:28:32;1.80;1.00
1137;DHT22;557;48.466;7.950;2023-01-19T18:31:19;1.80;1.00
1137;DHT22;557;48.466;7.950;2023-01-19T18:34:08;1.80;1.00
1137;DHT22;557;48.466;7.950;2023-01-19T18:36:55;1.80;1.00
1137;DHT22;557;48.466;7.950;2023-01-19T18:39:43;1.80;1.00
1137;DHT22;557;48.466;7.950;2023-01-19T18:42:32;1.80;1.00
1137;DHT22;557;48.466;7.950;2023-01-19T18:45:21;1.70;1.00
1137;DHT22;557;48.466;7.950;2023-01-19T18:48:08;1.70;1.00
1137;DHT22;557;48.466;7.950;2023-01-19T18:50:57;1.70;1.00
1137;DHT22;557;48.466;7.950;2023-01-19T18:53:48;1.70;1.00
1137;DHT22;557;48.466;7.950;2023-01-19T18:56:35;1.80;1.00
1137;DHT22;557;48.466;7.950;2023-01-19T18:59:22;1.70;1.00
1137;DHT22;557;48.466;7.950;2023-01-19T19:02:10;1.80;1.00
1137;DHT22;557;48.466;7.950;2023-01-19T19:04:58;1.80;1.00
1137;DHT22;557;48.466;7.950;2023-01-19T19:07:47;1.80;1.00
1137;DHT22;557;48.466;7.950;2023-01-19T19:10:34;1.80;1.00
1137;DHT22;557;48.466;7.950;2023-01-19T19:13:21;1.80;1.00